sensor_id;sensor_type;location;lat;lon;timestamp;P1;durP1;ratioP1;P2;durP2;ratioP2
4430;SDS011;2228;48.140;11.488;2024-01-15T00:01:59;10.48;;;4.82;;
4430;SDS011;2228;48.140;11.488;2024-01-15T00:04:27;8.98;;;4.47;;
4430;SDS011;2228;48.140;11.488;2024-01-15T00:06:54;10.50;;;4.60;;
4430;SDS011;2228;48.140;11.488;2024-01-15T00:09:22;13.13;;;5.55;;
4430;SDS011;2228;48.140;11.488;2024-01-15T00:11:51;10.88;;;4.97;;
4430;SDS011;2228;48.140;11.488;2024-01-15T00:14:19;10.43;;;4.97;;
4430;SDS011;2228;48.140;11.488;2024-01-15T00:16:47;8.88;;;4.30;;
4430;SDS011;2228;48.140;11.488;2024-01-15T00:19:15;12.48;;;4.75;;
4430;SDS011;2228;48.140;11.488;2024-01-15T00:21:43;11.75;;;4.65;;
4430;SDS011;2228;48.140;11.488;2024-01-15T00:24:10;11.60;;;5.20;;
4430;SDS011;2228;48.140;11.488;2024-01-15T00:26:37;13.63;;;5.80;;
4430;SDS011;2228;48.140;11.488;2024-01-15T00:29:07;12.30;;;5.78;;
4430;SDS011;2228;48.140;11.488;2024-01-15T00:31:35;10.70;;;5.25;;
4430;SDS011;2228;48.140;11.488;2024-01-15T00:34:02;12.65;;;5.00;;
4430;SDS011;2228;48.140;11.488;2024-01-15T00:36:30;13.65;;;5.80;;
4430;SDS011;2228;48.140;11.488;2024-01-15T00:38:57;12.93;;;5.80;;
4430;SDS011;2228;48.140;11.488;2024-01-15T00:41:24;15.10;;;6.20;;
4430;SDS011;2228;48.140;11.488;2024-01-15T00:43:52;9.23;;;4.60;;
4430;SDS011;2228;48.140;11.488;2024-01-15T00:46:21;12.90;;;5.50;;
4430;SDS011;2228;48.140;11.488;2024-01-15T00:48:48;11.27;;;5.18;;
4430;SDS011;2228;48.140;11.488;2024-01-15T00:51:16;11.25;;;5.22;;
4430;SDS011;2228;48.140;11.488;2024-01-15T00:53:43;7.47;;;4.40;;
4430;SDS011;2228;48.140;11.488;2024-01-15T00:56:10;10.90;;;4.93;;
4430;SDS011;2228;48.140;11.488;2024-01-15T00:58:37;10.27;;;5.03;;
4430;SDS011;2228;48.140;11.488;2024-01-15T01:01:05;14.63;;;6.70;;
4430;SDS011;2228;48.140;11.488;2024-01-15T01:03:33;15.57;;;6.50;;
4430;SDS011;2228;48.140;11.488;2024-01-15T01:06:01;13.70;;;7.10;;
4430;SDS011;2228;48.140;11.488;2024-01-15T01:08:28;17.15;;;7.50;;
4430;SDS011;2228;48.140;11.488;2024-01-15T01:10:56;14.88;;;6.70;;
4430;SDS011;2228;48.140;11.488;2024-01-15T01:13:23;16.13;;;7.40;;
4430;SDS011;2228;48.140;11.488;2024-01-15T01:15:50;17.90;;;8.40;;
4430;SDS011;2228;48.140;11.488;2024-01-15T01:18:17;16.00;;;7.13;;
4430;SDS011;2228;48.140;11.488;2024-01-15T01:20:46;15.20;;;6.90;;
4430;SDS011;2228;48.140;11.488;2024-01-15T01:23:13;15.07;;;7.45;;
4430;SDS011;2228;48.140;11.488;2024-01-15T01:25:41;15.15;;;7.10;;
4430;SDS011;2228;48.140;11.488;2024-01-15T01:28:08;17.58;;;7.68;;
4430;SDS011;2228;48.140;11.488;2024-01-15T01:30:36;17.38;;;7.30;;
4430;SDS011;2228;48.140;11.488;2024-01-15T01:33:03;16.30;;;7.55;;
4430;SDS011;2228;48.140;11.488;2024-01-15T01:35:30;18.27;;;8.07;;
4430;SDS011;2228;48.140;11.488;2024-01-15T01:37:59;16.25;;;7.30;;
4430;SDS011;2228;48.140;11.488;2024-01-15T01:40:26;16.25;;;7.18;;
4430;SDS011;2228;48.140;11.488;2024-01-15T01:42:54;16.00;;;7.00;;
4430;SDS011;2228;48.140;11.488;2024-01-15T01:45:21;17.60;;;8.88;;
4430;SDS011;2228;48.140;11.488;2024-01-15T01:47:48;13.90;;;6.20;;
4430;SDS011;2228;48.140;11.488;2024-01-15T01:50:16;17.77;;;7.05;;
4430;SDS011;2228;48.140;11.488;2024-01-15T01:52:43;16.70;;;7.30;;
4430;SDS011;2228;48.140;11.488;2024-01-15T01:55:12;17.20;;;6.90;;
4430;SDS011;2228;48.140;11.488;2024-01-15T01:57:39;18.70;;;7.78;;
4430;SDS011;2228;48.140;11.488;2024-01-15T02:00:07;11.50;;;5.10;;
4430;SDS011;2228;48.140;11.488;2024-01-15T02:02:35;13.70;;;5.82;;
4430;SDS011;2228;48.140;11.488;2024-01-15T02:05:03;14.98;;;6.25;;
4430;SDS011;2228;48.140;11.488;2024-01-15T02:07:31;17.00;;;7.18;;
4430;SDS011;2228;48.140;11.488;2024-01-15T02:09:59;16.35;;;7.30;;
4430;SDS011;2228;48.140;11.488;2024-01-15T02:12:27;13.35;;;6.13;;
4430;SDS011;2228;48.140;11.488;2024-01-15T02:14:55;14.73;;;7.22;;
4430;SDS011;2228;48.140;11.488;2024-01-15T02:17:22;12.90;;;5.53;;
4430;SDS011;2228;48.140;11.488;2024-01-15T02:19:49;18.67;;;6.85;;
4430;SDS011;2228;48.140;11.488;2024-01-15T02:22:17;13.20;;;6.10;;
4430;SDS011;2228;48.140;11.488;2024-01-15T02:24:45;15.00;;;6.75;;
4430;SDS011;2228;48.140;11.488;2024-01-15T02:27:12;15.87;;;7.17;;
4430;SDS011;2228;48.140;11.488;2024-01-15T02:29:40;18.00;;;7.72;;
4430;SDS011;2228;48.140;11.488;2024-01-15T02:32:08;17.08;;;7.68;;
4430;SDS011;2228;48.140;11.488;2024-01-15T02:34:36;16.90;;;6.93;;
4430;SDS011;2228;48.140;11.488;2024-01-15T02:37:03;19.60;;;7.90;;
4430;SDS011;2228;48.140;11.488;2024-01-15T02:39:30;16.95;;;6.80;;
4430;SDS011;2228;48.140;11.488;2024-01-15T02:41:59;17.33;;;7.32;;
4430;SDS011;2228;48.140;11.488;2024-01-15T02:44:26;16.92;;;7.30;;
4430;SDS011;2228;48.140;11.488;2024-01-15T02:46:54;17.27;;;7.57;;
4430;SDS011;2228;48.140;11.488;2024-01-15T02:49:21;16.48;;;7.65;;
4430;SDS011;2228;48.140;11.488;2024-01-15T02:51:48;15.55;;;6.75;;
4430;SDS011;2228;48.140;11.488;2024-01-15T02:54:15;18.63;;;7.82;;
4430;SDS011;2228;48.140;11.488;2024-01-15T02:56:43;15.47;;;7.10;;
4430;SDS011;2228;48.140;11.488;2024-01-15T02:59:11;17.00;;;7.55;;
4430;SDS011;2228;48.140;11.488;2024-01-15T03:01:39;17.58;;;7.95;;
4430;SDS011;2228;48.140;11.488;2024-01-15T03:04:06;16.38;;;7.50;;
4430;SDS011;2228;48.140;11.488;2024-01-15T03:06:33;13.90;;;5.78;;
4430;SDS011;2228;48.140;11.488;2024-01-15T03:09:01;12.82;;;6.18;;
4430;SDS011;2228;48.140;11.488;2024-01-15T03:11:28;16.55;;;6.95;;
4430;SDS011;2228;48.140;11.488;2024-01-15T03:13:56;16.00;;;7.40;;
4430;SDS011;2228;48.140;11.488;2024-01-15T03:16:24;16.75;;;7.10;;
4430;SDS011;2228;48.140;11.488;2024-01-15T03:18:51;22.15;;;7.40;;
4430;SDS011;2228;48.140;11.488;2024-01-15T03:21:19;14.93;;;7.03;;
4430;SDS011;2228;48.140;11.488;2024-01-15T03:23:46;15.07;;;6.80;;
4430;SDS011;2228;48.140;11.488;2024-01-15T03:26:13;13.75;;;6.22;;
4430;SDS011;2228;48.140;11.488;2024-01-15T03:28:40;15.13;;;6.38;;
4430;SDS011;2228;48.140;11.488;2024-01-15T05:28:34;10.37;;;5.00;;
4430;SDS011;2228;48.140;11.488;2024-01-15T05:31:01;10.90;;;5.37;;
4430;SDS011;2228;48.140;11.488;2024-01-15T05:33:29;8.90;;;5.20;;
4430;SDS011;2228;48.140;11.488;2024-01-15T05:35:56;10.77;;;4.83;;
4430;SDS011;2228;48.140;11.488;2024-01-15T05:38:24;13.75;;;5.13;;
4430;SDS011;2228;48.140;11.488;2024-01-15T05:40:51;8.32;;;4.50;;
4430;SDS011;2228;48.140;11.488;2024-01-15T05:43:18;10.75;;;5.40;;
4430;SDS011;2228;48.140;11.488;2024-01-15T05:45:47;11.55;;;5.10;;
4430;SDS011;2228;48.140;11.488;2024-01-15T05:48:14;9.98;;;5.20;;
4430;SDS011;2228;48.140;11.488;2024-01-15T05:50:41;11.43;;;4.90;;
4430;SDS011;2228;48.140;11.488;2024-01-15T05:53:09;12.95;;;4.95;;
4430;SDS011;2228;48.140;11.488;2024-01-15T05:55:36;13.17;;;5.40;;
4430;SDS011;2228;48.140;11.488;2024-01-15T05:58:03;13.15;;;5.18;;
4430;SDS011;2228;48.140;11.488;2024-01-15T06:00:30;10.50;;;4.50;;
4430;SDS011;2228;48.140;11.488;2024-01-15T06:03:01;10.07;;;4.65;;
4430;SDS011;2228;48.140;11.488;2024-01-15T06:05:29;12.38;;;5.20;;
4430;SDS011;2228;48.140;11.488;2024-01-15T06:07:56;14.02;;;5.43;;
4430;SDS011;2228;48.140;11.488;2024-01-15T06:10:23;9.73;;;4.38;;
4430;SDS011;2228;48.140;11.488;2024-01-15T06:12:50;6.85;;;3.83;;
4430;SDS011;2228;48.140;11.488;2024-01-15T06:15:17;9.32;;;4.32;;
4430;SDS011;2228;48.140;11.488;2024-01-15T06:17:45;12.25;;;4.75;;
4430;SDS011;2228;48.140;11.488;2024-01-15T06:20:14;9.30;;;4.97;;
4430;SDS011;2228;48.140;11.488;2024-01-15T06:22:41;10.65;;;5.10;;
4430;SDS011;2228;48.140;11.488;2024-01-15T06:25:08;10.77;;;4.53;;
4430;SDS011;2228;48.140;11.488;2024-01-15T06:27:35;8.20;;;4.70;;
4430;SDS011;2228;48.140;11.488;2024-01-15T06:30:03;9.07;;;4.82;;
4430;SDS011;2228;48.140;11.488;2024-01-15T06:32:30;12.40;;;4.90;;
4430;SDS011;2228;48.140;11.488;2024-01-15T06:34:57;10.40;;;4.90;;
4430;SDS011;2228;48.140;11.488;2024-01-15T06:37:26;8.63;;;4.45;;
4430;SDS011;2228;48.140;11.488;2024-01-15T06:39:53;11.93;;;4.73;;
4430;SDS011;2228;48.140;11.488;2024-01-15T06:42:20;10.70;;;4.72;;
4430;SDS011;2228;48.140;11.488;2024-01-15T06:44:47;10.50;;;5.05;;
4430;SDS011;2228;48.140;11.488;2024-01-15T06:47:15;10.23;;;5.65;;
4430;SDS011;2228;48.140;11.488;2024-01-15T06:49:42;11.40;;;5.20;;
4430;SDS011;2228;48.140;11.488;2024-01-15T06:52:09;11.43;;;4.85;;
4430;SDS011;2228;48.140;11.488;2024-01-15T06:54:39;12.25;;;5.10;;
4430;SDS011;2228;48.140;11.488;2024-01-15T06:57:06;13.10;;;5.10;;
4430;SDS011;2228;48.140;11.488;2024-01-15T06:59:33;10.23;;;4.20;;
4430;SDS011;2228;48.140;11.488;2024-01-15T07:02:01;10.32;;;5.10;;
4430;SDS011;2228;48.140;11.488;2024-01-15T07:04:29;8.30;;;3.80;;
4430;SDS011;2228;48.140;11.488;2024-01-15T07:06:56;12.00;;;5.07;;
4430;SDS011;2228;48.140;11.488;2024-01-15T07:09:23;10.63;;;4.40;;
4430;SDS011;2228;48.140;11.488;2024-01-15T07:11:52;11.60;;;5.60;;
4430;SDS011;2228;48.140;11.488;2024-01-15T07:14:19;11.50;;;5.20;;
4430;SDS011;2228;48.140;11.488;2024-01-15T07:16:46;9.35;;;4.78;;
4430;SDS011;2228;48.140;11.488;2024-01-15T07:19:13;10.35;;;4.60;;
4430;SDS011;2228;48.140;11.488;2024-01-15T07:21:41;11.07;;;4.90;;
4430;SDS011;2228;48.140;11.488;2024-01-15T07:24:08;10.57;;;4.60;;
4430;SDS011;2228;48.140;11.488;2024-01-15T07:26:36;10.15;;;5.00;;
4430;SDS011;2228;48.140;11.488;2024-01-15T07:29:05;9.82;;;5.20;;
4430;SDS011;2228;48.140;11.488;2024-01-15T07:31:32;11.85;;;5.13;;
4430;SDS011;2228;48.140;11.488;2024-01-15T07:33:59;11.50;;;4.85;;
4430;SDS011;2228;48.140;11.488;2024-01-15T07:36:27;12.13;;;5.00;;
4430;SDS011;2228;48.140;11.488;2024-01-15T07:38:54;10.55;;;4.53;;
4430;SDS011;2228;48.140;11.488;2024-01-15T07:41:21;11.48;;;4.88;;
4430;SDS011;2228;48.140;11.488;2024-01-15T07:43:48;10.50;;;5.10;;
4430;SDS011;2228;48.140;11.488;2024-01-15T07:46:17;10.80;;;4.97;;
4430;SDS011;2228;48.140;11.488;2024-01-15T07:48:45;10.53;;;5.37;;
4430;SDS011;2228;48.140;11.488;2024-01-15T07:51:12;10.43;;;5.28;;
4430;SDS011;2228;48.140;11.488;2024-01-15T07:53:40;14.75;;;5.30;;
4430;SDS011;2228;48.140;11.488;2024-01-15T07:56:07;9.52;;;4.75;;
4430;SDS011;2228;48.140;11.488;2024-01-15T07:58:34;9.80;;;4.90;;
4430;SDS011;2228;48.140;11.488;2024-01-15T08:01:01;11.68;;;4.32;;
4430;SDS011;2228;48.140;11.488;2024-01-15T08:03:31;10.10;;;5.07;;
4430;SDS011;2228;48.140;11.488;2024-01-15T08:05:58;13.52;;;4.32;;
4430;SDS011;2228;48.140;11.488;2024-01-15T08:08:26;10.70;;;5.18;;
4430;SDS011;2228;48.140;11.488;2024-01-15T08:10:54;12.57;;;5.55;;
4430;SDS011;2228;48.140;11.488;2024-01-15T08:13:21;11.35;;;5.00;;
4430;SDS011;2228;48.140;11.488;2024-01-15T08:15:48;12.98;;;5.55;;
4430;SDS011;2228;48.140;11.488;2024-01-15T08:18:16;12.68;;;6.13;;
4430;SDS011;2228;48.140;11.488;2024-01-15T08:20:45;9.65;;;5.03;;
4430;SDS011;2228;48.140;11.488;2024-01-15T08:23:12;7.90;;;5.20;;
4430;SDS011;2228;48.140;11.488;2024-01-15T08:25:39;7.23;;;4.20;;
4430;SDS011;2228;48.140;11.488;2024-01-15T08:28:07;11.15;;;4.38;;
4430;SDS011;2228;48.140;11.488;2024-01-15T08:30:34;10.03;;;4.67;;
4430;SDS011;2228;48.140;11.488;2024-01-15T08:33:01;7.47;;;3.80;;
4430;SDS011;2228;48.140;11.488;2024-01-15T08:35:28;9.95;;;4.70;;
4430;SDS011;2228;48.140;11.488;2024-01-15T08:37:57;13.18;;;4.40;;
4430;SDS011;2228;48.140;11.488;2024-01-15T08:40:24;7.40;;;3.87;;
4430;SDS011;2228;48.140;11.488;2024-01-15T08:42:52;11.35;;;4.65;;
4430;SDS011;2228;48.140;11.488;2024-01-15T08:45:19;8.70;;;4.05;;
4430;SDS011;2228;48.140;11.488;2024-01-15T08:47:46;12.35;;;5.03;;
4430;SDS011;2228;48.140;11.488;2024-01-15T08:50:14;10.15;;;4.82;;
4430;SDS011;2228;48.140;11.488;2024-01-15T08:52:41;11.27;;;4.53;;
4430;SDS011;2228;48.140;11.488;2024-01-15T08:55:10;10.70;;;5.43;;
4430;SDS011;2228;48.140;11.488;2024-01-15T08:57:38;11.07;;;4.30;;
4430;SDS011;2228;48.140;11.488;2024-01-15T09:00:06;10.40;;;4.60;;
4430;SDS011;2228;48.140;11.488;2024-01-15T09:02:34;10.10;;;4.80;;
4430;SDS011;2228;48.140;11.488;2024-01-15T09:05:02;10.98;;;5.28;;
4430;SDS011;2228;48.140;11.488;2024-01-15T09:07:30;11.30;;;5.05;;
4430;SDS011;2228;48.140;11.488;2024-01-15T09:09:57;10.07;;;4.78;;
4430;SDS011;2228;48.140;11.488;2024-01-15T09:12:27;8.15;;;4.50;;
4430;SDS011;2228;48.140;11.488;2024-01-15T09:14:55;10.10;;;4.78;;
4430;SDS011;2228;48.140;11.488;2024-01-15T09:17:22;11.63;;;5.45;;
4430;SDS011;2228;48.140;11.488;2024-01-15T09:19:49;11.70;;;5.07;;
4430;SDS011;2228;48.140;11.488;2024-01-15T09:22:17;11.10;;;5.10;;
4430;SDS011;2228;48.140;11.488;2024-01-15T09:24:44;9.98;;;4.78;;
4430;SDS011;2228;48.140;11.488;2024-01-15T09:27:11;10.87;;;5.07;;
4430;SDS011;2228;48.140;11.488;2024-01-15T09:29:40;10.32;;;4.20;;
4430;SDS011;2228;48.140;11.488;2024-01-15T09:32:09;9.65;;;4.47;;
4430;SDS011;2228;48.140;11.488;2024-01-15T09:34:36;12.95;;;4.93;;
4430;SDS011;2228;48.140;11.488;2024-01-15T09:37:03;9.50;;;3.60;;
4430;SDS011;2228;48.140;11.488;2024-01-15T09:39:30;16.63;;;4.35;;
4430;SDS011;2228;48.140;11.488;2024-01-15T09:41:58;9.33;;;5.23;;
4430;SDS011;2228;48.140;11.488;2024-01-15T09:44:26;10.50;;;4.90;;
4430;SDS011;2228;48.140;11.488;2024-01-15T09:46:56;10.40;;;4.68;;
4430;SDS011;2228;48.140;11.488;2024-01-15T09:49:23;6.80;;;3.70;;
4430;SDS011;2228;48.140;11.488;2024-01-15T09:51:51;7.90;;;4.45;;
4430;SDS011;2228;48.140;11.488;2024-01-15T09:54:18;7.30;;;3.87;;
4430;SDS011;2228;48.140;11.488;2024-01-15T09:56:46;8.98;;;3.70;;
4430;SDS011;2228;48.140;11.488;2024-01-15T09:59:14;6.40;;;4.00;;
4430;SDS011;2228;48.140;11.488;2024-01-15T10:01:43;7.60;;;3.70;;
4430;SDS011;2228;48.140;11.488;2024-01-15T10:04:11;7.78;;;3.83;;
4430;SDS011;2228;48.140;11.488;2024-01-15T10:06:38;6.72;;;3.20;;
4430;SDS011;2228;48.140;11.488;2024-01-15T10:09:06;6.00;;;3.13;;
4430;SDS011;2228;48.140;11.488;2024-01-15T10:11:34;6.88;;;3.67;;
4430;SDS011;2228;48.140;11.488;2024-01-15T10:14:02;4.53;;;2.90;;
4430;SDS011;2228;48.140;11.488;2024-01-15T10:16:30;8.88;;;3.42;;
4430;SDS011;2228;48.140;11.488;2024-01-15T10:18:57;6.32;;;3.30;;
4430;SDS011;2228;48.140;11.488;2024-01-15T10:21:25;8.25;;;3.47;;
4430;SDS011;2228;48.140;11.488;2024-01-15T10:30:51;6.05;;;3.17;;
4430;SDS011;2228;48.140;11.488;2024-01-15T10:33:21;9.88;;;3.00;;
4430;SDS011;2228;48.140;11.488;2024-01-15T10:35:51;6.38;;;3.28;;
4430;SDS011;2228;48.140;11.488;2024-01-15T10:38:22;6.97;;;3.30;;
4430;SDS011;2228;48.140;11.488;2024-01-15T10:40:50;11.48;;;4.00;;
4430;SDS011;2228;48.140;11.488;2024-01-15T10:43:18;8.25;;;3.75;;
4430;SDS011;2228;48.140;11.488;2024-01-15T10:45:45;7.97;;;3.20;;
4430;SDS011;2228;48.140;11.488;2024-01-15T10:48:13;6.13;;;2.90;;
4430;SDS011;2228;48.140;11.488;2024-01-15T10:50:40;5.83;;;2.53;;
4430;SDS011;2228;48.140;11.488;2024-01-15T10:53:07;5.63;;;3.00;;
4430;SDS011;2228;48.140;11.488;2024-01-15T10:55:37;5.75;;;2.75;;
4430;SDS011;2228;48.140;11.488;2024-01-15T10:58:04;5.85;;;3.00;;
4430;SDS011;2228;48.140;11.488;2024-01-15T11:00:32;7.80;;;3.15;;
4430;SDS011;2228;48.140;11.488;2024-01-15T11:03:00;8.88;;;3.28;;
4430;SDS011;2228;48.140;11.488;2024-01-15T11:05:28;6.28;;;3.33;;
4430;SDS011;2228;48.140;11.488;2024-01-15T11:07:55;7.68;;;3.40;;
4430;SDS011;2228;48.140;11.488;2024-01-15T11:10:38;6.00;;;3.22;;
4430;SDS011;2228;48.140;11.488;2024-01-15T11:13:08;6.50;;;3.33;;
4430;SDS011;2228;48.140;11.488;2024-01-15T11:18:17;6.05;;;3.15;;
4430;SDS011;2228;48.140;11.488;2024-01-15T11:23:41;7.68;;;3.55;;
4430;SDS011;2228;48.140;11.488;2024-01-15T11:26:16;5.73;;;2.60;;
4430;SDS011;2228;48.140;11.488;2024-01-15T11:28:54;7.88;;;3.80;;
4430;SDS011;2228;48.140;11.488;2024-01-15T11:31:25;5.60;;;2.70;;
4430;SDS011;2228;48.140;11.488;2024-01-15T11:33:52;9.95;;;3.63;;
4430;SDS011;2228;48.140;11.488;2024-01-15T11:36:20;7.20;;;3.50;;
4430;SDS011;2228;48.140;11.488;2024-01-15T11:38:47;8.27;;;3.40;;
4430;SDS011;2228;48.140;11.488;2024-01-15T11:41:16;4.47;;;2.60;;
4430;SDS011;2228;48.140;11.488;2024-01-15T11:43:43;4.90;;;2.72;;
4430;SDS011;2228;48.140;11.488;2024-01-15T11:46:11;6.80;;;2.83;;
4430;SDS011;2228;48.140;11.488;2024-01-15T11:48:42;4.90;;;2.70;;
4430;SDS011;2228;48.140;11.488;2024-01-15T11:51:10;6.68;;;3.08;;
4430;SDS011;2228;48.140;11.488;2024-01-15T11:53:40;5.87;;;2.77;;
4430;SDS011;2228;48.140;11.488;2024-01-15T11:56:12;5.97;;;2.73;;
4430;SDS011;2228;48.140;11.488;2024-01-15T11:58:43;8.00;;;3.00;;
4430;SDS011;2228;48.140;11.488;2024-01-15T12:01:10;6.20;;;3.17;;
4430;SDS011;2228;48.140;11.488;2024-01-15T12:03:37;6.82;;;3.30;;
4430;SDS011;2228;48.140;11.488;2024-01-15T12:06:05;5.90;;;2.47;;
4430;SDS011;2228;48.140;11.488;2024-01-15T12:08:33;6.70;;;2.78;;
4430;SDS011;2228;48.140;11.488;2024-01-15T12:11:00;5.35;;;2.60;;
4430;SDS011;2228;48.140;11.488;2024-01-15T12:13:32;5.47;;;3.10;;
4430;SDS011;2228;48.140;11.488;2024-01-15T12:16:01;4.68;;;2.60;;
4430;SDS011;2228;48.140;11.488;2024-01-15T12:18:29;5.13;;;2.60;;
4430;SDS011;2228;48.140;11.488;2024-01-15T12:20:56;4.00;;;2.22;;
4430;SDS011;2228;48.140;11.488;2024-01-15T12:23:24;5.45;;;2.60;;
4430;SDS011;2228;48.140;11.488;2024-01-15T12:25:52;4.95;;;2.22;;
4430;SDS011;2228;48.140;11.488;2024-01-15T12:28:20;6.40;;;2.58;;
4430;SDS011;2228;48.140;11.488;2024-01-15T12:30:47;5.22;;;2.10;;
4430;SDS011;2228;48.140;11.488;2024-01-15T12:33:17;8.48;;;2.55;;
4430;SDS011;2228;48.140;11.488;2024-01-15T12:35:45;4.78;;;2.17;;
4430;SDS011;2228;48.140;11.488;2024-01-15T12:38:12;5.47;;;2.00;;
4430;SDS011;2228;48.140;11.488;2024-01-15T12:40:39;3.60;;;2.13;;
4430;SDS011;2228;48.140;11.488;2024-01-15T12:43:06;5.00;;;2.00;;
4430;SDS011;2228;48.140;11.488;2024-01-15T12:45:34;3.85;;;2.03;;
4430;SDS011;2228;48.140;11.488;2024-01-15T12:48:03;4.45;;;1.88;;
4430;SDS011;2228;48.140;11.488;2024-01-15T12:50:32;4.57;;;1.90;;
4430;SDS011;2228;48.140;11.488;2024-01-15T12:53:00;4.85;;;2.33;;
4430;SDS011;2228;48.140;11.488;2024-01-15T12:55:28;4.22;;;2.00;;
4430;SDS011;2228;48.140;11.488;2024-01-15T12:57:55;5.72;;;2.50;;
4430;SDS011;2228;48.140;11.488;2024-01-15T13:00:22;4.23;;;2.27;;
4430;SDS011;2228;48.140;11.488;2024-01-15T13:02:51;4.20;;;2.20;;
4430;SDS011;2228;48.140;11.488;2024-01-15T13:05:18;5.00;;;2.67;;
4430;SDS011;2228;48.140;11.488;2024-01-15T13:07:48;4.03;;;2.30;;
4430;SDS011;2228;48.140;11.488;2024-01-15T13:10:15;6.15;;;2.40;;
4430;SDS011;2228;48.140;11.488;2024-01-15T13:12:42;4.03;;;2.10;;
4430;SDS011;2228;48.140;11.488;2024-01-15T13:15:10;4.68;;;2.35;;
4430;SDS011;2228;48.140;11.488;2024-01-15T13:17:38;4.32;;;2.40;;
4430;SDS011;2228;48.140;11.488;2024-01-15T13:20:06;5.03;;;2.50;;
4430;SDS011;2228;48.140;11.488;2024-01-15T13:22:36;6.72;;;2.88;;
4430;SDS011;2228;48.140;11.488;2024-01-15T13:25:06;7.78;;;2.60;;
4430;SDS011;2228;48.140;11.488;2024-01-15T13:27:34;6.33;;;2.80;;
4430;SDS011;2228;48.140;11.488;2024-01-15T13:30:01;5.70;;;2.60;;
4430;SDS011;2228;48.140;11.488;2024-01-15T13:32:29;6.10;;;2.90;;
4430;SDS011;2228;48.140;11.488;2024-01-15T13:35:01;5.97;;;2.80;;
4430;SDS011;2228;48.140;11.488;2024-01-15T13:37:30;6.57;;;3.00;;
4430;SDS011;2228;48.140;11.488;2024-01-15T13:39:58;7.53;;;3.10;;
4430;SDS011;2228;48.140;11.488;2024-01-15T13:42:26;6.28;;;3.13;;
4430;SDS011;2228;48.140;11.488;2024-01-15T13:44:53;7.80;;;3.38;;
4430;SDS011;2228;48.140;11.488;2024-01-15T13:47:21;9.07;;;2.90;;
4430;SDS011;2228;48.140;11.488;2024-01-15T13:49:49;5.82;;;2.90;;
4430;SDS011;2228;48.140;11.488;2024-01-15T13:52:16;5.37;;;3.10;;
4430;SDS011;2228;48.140;11.488;2024-01-15T13:54:44;6.40;;;3.20;;
4430;SDS011;2228;48.140;11.488;2024-01-15T13:57:11;6.70;;;3.10;;
4430;SDS011;2228;48.140;11.488;2024-01-15T13:59:40;7.78;;;3.30;;
4430;SDS011;2228;48.140;11.488;2024-01-15T14:02:07;7.65;;;3.45;;
4430;SDS011;2228;48.140;11.488;2024-01-15T14:04:34;6.75;;;3.58;;
4430;SDS011;2228;48.140;11.488;2024-01-15T14:07:02;6.85;;;4.20;;
4430;SDS011;2228;48.140;11.488;2024-01-15T14:09:29;9.30;;;3.10;;
4430;SDS011;2228;48.140;11.488;2024-01-15T14:11:57;9.13;;;3.97;;
4430;SDS011;2228;48.140;11.488;2024-01-15T14:14:24;7.93;;;3.85;;
4430;SDS011;2228;48.140;11.488;2024-01-15T14:16:52;8.50;;;3.50;;
4430;SDS011;2228;48.140;11.488;2024-01-15T14:19:20;6.50;;;3.35;;
4430;SDS011;2228;48.140;11.488;2024-01-15T14:21:47;8.73;;;3.00;;
4430;SDS011;2228;48.140;11.488;2024-01-15T14:24:14;7.13;;;3.45;;
4430;SDS011;2228;48.140;11.488;2024-01-15T14:26:42;5.50;;;2.80;;
4430;SDS011;2228;48.140;11.488;2024-01-15T14:29:09;7.55;;;3.22;;
4430;SDS011;2228;48.140;11.488;2024-01-15T14:31:36;8.40;;;3.40;;
4430;SDS011;2228;48.140;11.488;2024-01-15T14:34:07;5.63;;;3.25;;
4430;SDS011;2228;48.140;11.488;2024-01-15T14:36:35;7.07;;;3.00;;
4430;SDS011;2228;48.140;11.488;2024-01-15T14:39:02;5.35;;;2.83;;
4430;SDS011;2228;48.140;11.488;2024-01-15T14:41:30;4.57;;;2.80;;
4430;SDS011;2228;48.140;11.488;2024-01-15T14:43:57;5.50;;;2.57;;
4430;SDS011;2228;48.140;11.488;2024-01-15T14:46:25;4.88;;;2.60;;
4430;SDS011;2228;48.140;11.488;2024-01-15T14:48:52;4.72;;;2.80;;
4430;SDS011;2228;48.140;11.488;2024-01-15T14:51:21;5.90;;;2.90;;
4430;SDS011;2228;48.140;11.488;2024-01-15T14:53:48;4.25;;;2.70;;
4430;SDS011;2228;48.140;11.488;2024-01-15T14:56:16;4.93;;;2.70;;
4430;SDS011;2228;48.140;11.488;2024-01-15T14:58:44;5.40;;;2.63;;
4430;SDS011;2228;48.140;11.488;2024-01-15T15:01:11;5.55;;;2.58;;
4430;SDS011;2228;48.140;11.488;2024-01-15T15:03:39;5.22;;;2.83;;
4430;SDS011;2228;48.140;11.488;2024-01-15T15:06:06;6.57;;;2.70;;
4430;SDS011;2228;48.140;11.488;2024-01-15T15:08:35;7.30;;;2.50;;
4430;SDS011;2228;48.140;11.488;2024-01-15T15:11:03;4.30;;;2.40;;
4430;SDS011;2228;48.140;11.488;2024-01-15T15:13:30;5.38;;;2.95;;
4430;SDS011;2228;48.140;11.488;2024-01-15T15:15:58;7.68;;;2.97;;
4430;SDS011;2228;48.140;11.488;2024-01-15T15:18:26;5.63;;;3.00;;
4430;SDS011;2228;48.140;11.488;2024-01-15T15:20:55;5.65;;;2.90;;
4430;SDS011;2228;48.140;11.488;2024-01-15T15:23:22;5.15;;;3.03;;
4430;SDS011;2228;48.140;11.488;2024-01-15T15:25:54;8.88;;;2.95;;
4430;SDS011;2228;48.140;11.488;2024-01-15T15:28:21;7.13;;;3.55;;
4430;SDS011;2228;48.140;11.488;2024-01-15T15:30:52;7.13;;;3.30;;
4430;SDS011;2228;48.140;11.488;2024-01-15T15:33:19;5.88;;;3.03;;
4430;SDS011;2228;48.140;11.488;2024-01-15T15:35:46;6.20;;;3.17;;
4430;SDS011;2228;48.140;11.488;2024-01-15T15:38:16;6.90;;;2.80;;
4430;SDS011;2228;48.140;11.488;2024-01-15T15:40:43;6.47;;;3.30;;
4430;SDS011;2228;48.140;11.488;2024-01-15T15:43:12;8.10;;;3.65;;
4430;SDS011;2228;48.140;11.488;2024-01-15T15:45:39;6.40;;;3.20;;
4430;SDS011;2228;48.140;11.488;2024-01-15T15:48:06;9.90;;;4.00;;
4430;SDS011;2228;48.140;11.488;2024-01-15T15:50:33;7.47;;;3.40;;
4430;SDS011;2228;48.140;11.488;2024-01-15T15:53:01;6.97;;;2.97;;
4430;SDS011;2228;48.140;11.488;2024-01-15T15:55:28;7.43;;;3.67;;
4430;SDS011;2228;48.140;11.488;2024-01-15T15:57:55;6.27;;;3.30;;
4430;SDS011;2228;48.140;11.488;2024-01-15T16:00:24;9.00;;;4.05;;
4430;SDS011;2228;48.140;11.488;2024-01-15T16:02:52;9.32;;;4.00;;
4430;SDS011;2228;48.140;11.488;2024-01-15T16:05:19;7.63;;;3.90;;
4430;SDS011;2228;48.140;11.488;2024-01-15T16:07:46;8.18;;;3.92;;
4430;SDS011;2228;48.140;11.488;2024-01-15T16:10:14;9.23;;;4.97;;
4430;SDS011;2228;48.140;11.488;2024-01-15T16:12:43;9.77;;;4.83;;
4430;SDS011;2228;48.140;11.488;2024-01-15T16:15:17;9.55;;;4.70;;
4430;SDS011;2228;48.140;11.488;2024-01-15T16:17:47;9.40;;;4.38;;
4430;SDS011;2228;48.140;11.488;2024-01-15T16:20:15;8.85;;;4.63;;
4430;SDS011;2228;48.140;11.488;2024-01-15T16:22:43;9.55;;;5.25;;
4430;SDS011;2228;48.140;11.488;2024-01-15T16:25:10;10.95;;;4.90;;
4430;SDS011;2228;48.140;11.488;2024-01-15T16:27:37;10.52;;;4.03;;
4430;SDS011;2228;48.140;11.488;2024-01-15T16:30:07;12.37;;;5.93;;
4430;SDS011;2228;48.140;11.488;2024-01-15T16:32:34;9.40;;;4.53;;
4430;SDS011;2228;48.140;11.488;2024-01-15T16:35:03;12.13;;;4.93;;
4430;SDS011;2228;48.140;11.488;2024-01-15T16:37:31;10.18;;;4.60;;
4430;SDS011;2228;48.140;11.488;2024-01-15T16:39:58;10.60;;;5.25;;
4430;SDS011;2228;48.140;11.488;2024-01-15T16:42:26;9.70;;;4.90;;
4430;SDS011;2228;48.140;11.488;2024-01-15T16:44:53;11.60;;;5.80;;
4430;SDS011;2228;48.140;11.488;2024-01-15T16:47:21;10.75;;;5.45;;
4430;SDS011;2228;48.140;11.488;2024-01-15T16:49:48;11.02;;;5.30;;
4430;SDS011;2228;48.140;11.488;2024-01-15T16:52:16;10.32;;;4.70;;
4430;SDS011;2228;48.140;11.488;2024-01-15T16:54:44;13.55;;;5.60;;
4430;SDS011;2228;48.140;11.488;2024-01-15T16:57:11;10.80;;;5.18;;
4430;SDS011;2228;48.140;11.488;2024-01-15T16:59:38;11.77;;;5.03;;
4430;SDS011;2228;48.140;11.488;2024-01-15T17:02:05;11.57;;;5.70;;
4430;SDS011;2228;48.140;11.488;2024-01-15T17:04:33;11.00;;;5.70;;
4430;SDS011;2228;48.140;11.488;2024-01-15T17:07:00;13.43;;;6.13;;
4430;SDS011;2228;48.140;11.488;2024-01-15T17:09:28;14.57;;;5.53;;